Portada
METAR-TAF:

METAR-TAF

Aeropuertos :

Ciudad de Kuwait, Kuwait

Aeropuerto Internacional de Kuwait

latitud: 29-13N, longitud: 047-59E, altitud: 55 m

Observación

El informe se hizo hace 34 minutos, a las 20:00 UTC
Viento 5 kt del noreste
Temperatura 15°C
Humedad 88%
Presión 1021 hPa
Visibilidad: 5000 m
Cielo despejado
neblina

METAR: OKBK 162000Z 05005KT 5000 BR SKC 15/13 Q1021 NOSIG

Hora: 23:34 (20:34 UTC)

Pronóstico

El informe se hizo hace 3 horas y 49 minutos, a las 16:45 UTC
Pronóstico válido del 16 a las 18 UTC al 17 a las 24 UTC
Viento 8 kt del norte-noreste
Visibilidad: 6000 m
Cielo despejado
Temporalmente
del 16 a las 20 UTC al 17 a las 05 UTC
Viento 3 kt con dirección variable
Visibilidad: 2000 m
neblina
Temporalmente
del 16 a las 23 UTC al 17 a las 03 UTC
Visibilidad: 0800 m
niebla

TAF: OKBK 161645Z 1618/1724 03008KT 6000 SKC TEMPO 1620/1705 VRB03KT 2000 BR TEMPO 1623/1703 0800 FG

Observaciones y pronósticos meteorológicos de más de 4000 aeropuertos (mensajes METAR y TAF).

Los puntos amarillos y rojos representan las estaciones disponibles.

Ponga el ratón en el punto deseado para ver el nombre de la estación.

Haga clic para ver las observaciones y los pronósticos meteorológicos.

Para cambiar el mapa : haga clic en los botones verdes con una cruz de color negro para hacer un zoom, en el botón verde con un guión para alejar o en las flechas verdes para mapas adyacentes.


METAR-TAF: